sensor_id;sensor_type;location;lat;lon;timestamp;pressure;altitude;pressure_sealevel;temperature;humidity
35910;BME280;22004;49.120;-0.200;2023-06-04T00:02:21;101740.91;;;14.86;70.09
35910;BME280;22004;49.120;-0.200;2023-06-04T00:04:46;101747.53;;;14.83;69.73
35910;BME280;22004;49.120;-0.200;2023-06-04T00:07:12;101729.09;;;14.87;70.38
35910;BME280;22004;49.120;-0.200;2023-06-04T00:09:37;101734.09;;;14.75;69.99
35910;BME280;22004;49.120;-0.200;2023-06-04T00:12:03;101739.00;;;14.71;70.06
35910;BME280;22004;49.120;-0.200;2023-06-04T00:14:28;101732.41;;;14.74;70.41
35910;BME280;22004;49.120;-0.200;2023-06-04T00:16:53;101729.72;;;14.74;70.78
35910;BME280;22004;49.120;-0.200;2023-06-04T00:19:19;101719.53;;;14.76;70.43
35910;BME280;22004;49.120;-0.200;2023-06-04T00:21:45;101727.66;;;14.76;70.42
35910;BME280;22004;49.120;-0.200;2023-06-04T00:24:10;101719.53;;;14.76;70.24
35910;BME280;22004;49.120;-0.200;2023-06-04T00:26:37;101718.59;;;14.69;70.58
35910;BME280;22004;49.120;-0.200;2023-06-04T00:29:02;101726.66;;;14.77;70.04
35910;BME280;22004;49.120;-0.200;2023-06-04T00:31:28;101723.91;;;14.62;70.55
35910;BME280;22004;49.120;-0.200;2023-06-04T00:33:53;101721.78;;;14.72;70.37
35910;BME280;22004;49.120;-0.200;2023-06-04T00:36:19;101718.97;;;14.66;70.05
35910;BME280;22004;49.120;-0.200;2023-06-04T00:38:44;101717.09;;;14.66;70.38
35910;BME280;22004;49.120;-0.200;2023-06-04T00:41:09;101715.13;;;14.60;70.52
35910;BME280;22004;49.120;-0.200;2023-06-04T00:43:35;101702.16;;;14.56;70.18
35910;BME280;22004;49.120;-0.200;2023-06-04T00:46:01;101706.97;;;14.68;70.64
35910;BME280;22004;49.120;-0.200;2023-06-04T00:48:28;101715.63;;;14.64;69.94
35910;BME280;22004;49.120;-0.200;2023-06-04T00:50:53;101703.28;;;14.61;70.34
35910;BME280;22004;49.120;-0.200;2023-06-04T00:53:20;101705.25;;;14.53;70.18
35910;BME280;22004;49.120;-0.200;2023-06-04T00:55:46;101709.72;;;14.60;70.04
35910;BME280;22004;49.120;-0.200;2023-06-04T00:58:11;101697.25;;;14.59;69.90
35910;BME280;22004;49.120;-0.200;2023-06-04T01:00:37;101694.34;;;14.61;70.07
35910;BME280;22004;49.120;-0.200;2023-06-04T01:03:07;101704.88;;;14.56;70.02
35910;BME280;22004;49.120;-0.200;2023-06-04T01:08:04;101701.44;;;14.62;70.07
35910;BME280;22004;49.120;-0.200;2023-06-04T01:10:30;101708.59;;;14.55;70.11
35910;BME280;22004;49.120;-0.200;2023-06-04T01:12:56;101709.50;;;14.47;70.50
35910;BME280;22004;49.120;-0.200;2023-06-04T01:15:21;101703.78;;;14.42;70.21
35910;BME280;22004;49.120;-0.200;2023-06-04T01:17:49;101707.22;;;14.36;70.08
35910;BME280;22004;49.120;-0.200;2023-06-04T01:28:00;101701.94;;;14.42;70.45
35910;BME280;22004;49.120;-0.200;2023-06-04T01:30:33;101708.28;;;14.27;70.34
35910;BME280;22004;49.120;-0.200;2023-06-04T01:33:00;101706.81;;;14.24;70.47
35910;BME280;22004;49.120;-0.200;2023-06-04T01:35:27;101702.59;;;14.21;70.04
35910;BME280;22004;49.120;-0.200;2023-06-04T01:37:54;101709.47;;;14.32;69.94
35910;BME280;22004;49.120;-0.200;2023-06-04T01:40:20;101708.44;;;14.33;69.91
35910;BME280;22004;49.120;-0.200;2023-06-04T01:42:46;101702.06;;;14.26;70.13
35910;BME280;22004;49.120;-0.200;2023-06-04T01:45:11;101707.75;;;14.31;70.05
35910;BME280;22004;49.120;-0.200;2023-06-04T01:47:37;101707.34;;;14.19;70.40
35910;BME280;22004;49.120;-0.200;2023-06-04T01:50:06;101704.59;;;14.28;70.76
35910;BME280;22004;49.120;-0.200;2023-06-04T01:52:36;101713.09;;;14.39;70.75
35910;BME280;22004;49.120;-0.200;2023-06-04T01:55:05;101707.41;;;14.34;70.83
35910;BME280;22004;49.120;-0.200;2023-06-04T01:57:33;101718.66;;;14.23;70.44
35910;BME280;22004;49.120;-0.200;2023-06-04T01:59:58;101718.41;;;14.33;70.11
35910;BME280;22004;49.120;-0.200;2023-06-04T02:02:24;101715.69;;;14.33;70.64
35910;BME280;22004;49.120;-0.200;2023-06-04T02:04:50;101722.19;;;14.23;70.35
35910;BME280;22004;49.120;-0.200;2023-06-04T02:07:18;101721.81;;;14.27;70.68
35910;BME280;22004;49.120;-0.200;2023-06-04T02:09:49;101717.38;;;14.11;70.52
35910;BME280;22004;49.120;-0.200;2023-06-04T02:12:15;101723.91;;;14.16;70.53
35910;BME280;22004;49.120;-0.200;2023-06-04T02:14:41;101725.97;;;14.14;70.17
35910;BME280;22004;49.120;-0.200;2023-06-04T02:17:12;101714.63;;;14.19;70.57
35910;BME280;22004;49.120;-0.200;2023-06-04T02:19:42;101720.22;;;14.17;70.37
35910;BME280;22004;49.120;-0.200;2023-06-04T02:22:16;101721.28;;;14.08;70.74
35910;BME280;22004;49.120;-0.200;2023-06-04T02:24:41;101728.00;;;14.12;70.47
35910;BME280;22004;49.120;-0.200;2023-06-04T02:27:11;101717.75;;;14.08;70.45
35910;BME280;22004;49.120;-0.200;2023-06-04T02:29:37;101722.78;;;14.11;69.88
35910;BME280;22004;49.120;-0.200;2023-06-04T02:32:03;101721.63;;;14.05;70.25
35910;BME280;22004;49.120;-0.200;2023-06-04T02:34:29;101716.53;;;14.10;70.21
35910;BME280;22004;49.120;-0.200;2023-06-04T02:36:54;101718.09;;;14.05;70.86
35910;BME280;22004;49.120;-0.200;2023-06-04T02:39:20;101718.41;;;14.10;70.34
35910;BME280;22004;49.120;-0.200;2023-06-04T02:41:45;101708.88;;;13.99;70.43
35910;BME280;22004;49.120;-0.200;2023-06-04T02:44:11;101715.28;;;13.98;70.07
35910;BME280;22004;49.120;-0.200;2023-06-04T02:46:37;101706.81;;;14.01;70.45
35910;BME280;22004;49.120;-0.200;2023-06-04T02:49:02;101719.66;;;13.99;70.46
35910;BME280;22004;49.120;-0.200;2023-06-04T02:51:28;101706.16;;;13.99;70.64
35910;BME280;22004;49.120;-0.200;2023-06-04T02:53:53;101712.75;;;13.96;70.48
35910;BME280;22004;49.120;-0.200;2023-06-04T02:56:19;101708.06;;;13.90;70.42
35910;BME280;22004;49.120;-0.200;2023-06-04T02:58:55;101711.78;;;13.89;70.60
35910;BME280;22004;49.120;-0.200;2023-06-04T03:01:25;101701.31;;;13.94;70.65
35910;BME280;22004;49.120;-0.200;2023-06-04T03:03:51;101699.78;;;13.92;70.71
35910;BME280;22004;49.120;-0.200;2023-06-04T03:06:18;101701.00;;;13.89;70.51
35910;BME280;22004;49.120;-0.200;2023-06-04T03:08:46;101689.91;;;13.84;70.91
35910;BME280;22004;49.120;-0.200;2023-06-04T03:11:12;101700.69;;;13.84;70.60
35910;BME280;22004;49.120;-0.200;2023-06-04T03:13:37;101696.47;;;13.82;70.80
35910;BME280;22004;49.120;-0.200;2023-06-04T03:16:03;101700.88;;;13.83;70.96
35910;BME280;22004;49.120;-0.200;2023-06-04T03:18:28;101696.72;;;13.95;71.00
35910;BME280;22004;49.120;-0.200;2023-06-04T03:20:54;101690.19;;;13.89;70.69
35910;BME280;22004;49.120;-0.200;2023-06-04T03:23:23;101698.47;;;13.88;70.61
35910;BME280;22004;49.120;-0.200;2023-06-04T03:25:48;101688.34;;;13.90;70.79
35910;BME280;22004;49.120;-0.200;2023-06-04T03:28:14;101701.53;;;13.85;70.48
35910;BME280;22004;49.120;-0.200;2023-06-04T03:30:40;101688.25;;;13.75;70.70
35910;BME280;22004;49.120;-0.200;2023-06-04T03:33:06;101698.19;;;13.83;70.53
35910;BME280;22004;49.120;-0.200;2023-06-04T03:35:31;101689.09;;;13.76;70.58
35910;BME280;22004;49.120;-0.200;2023-06-04T03:37:56;101700.56;;;13.78;70.56
35910;BME280;22004;49.120;-0.200;2023-06-04T03:40:22;101693.13;;;13.80;70.05
35910;BME280;22004;49.120;-0.200;2023-06-04T03:42:47;101703.44;;;13.76;70.56
35910;BME280;22004;49.120;-0.200;2023-06-04T03:45:12;101692.09;;;13.81;70.39
35910;BME280;22004;49.120;-0.200;2023-06-04T03:47:38;101700.88;;;13.83;70.21
35910;BME280;22004;49.120;-0.200;2023-06-04T03:50:05;101697.00;;;13.77;70.33
35910;BME280;22004;49.120;-0.200;2023-06-04T03:52:30;101690.00;;;13.68;70.65
35910;BME280;22004;49.120;-0.200;2023-06-04T03:54:56;101690.25;;;13.81;70.77
35910;BME280;22004;49.120;-0.200;2023-06-04T03:57:22;101691.31;;;13.72;70.39
35910;BME280;22004;49.120;-0.200;2023-06-04T03:59:47;101695.88;;;13.71;70.74
35910;BME280;22004;49.120;-0.200;2023-06-04T04:02:13;101701.44;;;13.70;70.48
35910;BME280;22004;49.120;-0.200;2023-06-04T04:04:38;101699.06;;;13.75;70.29
35910;BME280;22004;49.120;-0.200;2023-06-04T04:07:03;101699.25;;;13.74;70.58
35910;BME280;22004;49.120;-0.200;2023-06-04T04:09:29;101697.56;;;13.73;70.45
35910;BME280;22004;49.120;-0.200;2023-06-04T04:11:54;101691.69;;;13.69;70.59
35910;BME280;22004;49.120;-0.200;2023-06-04T04:14:20;101696.69;;;13.72;70.55
35910;BME280;22004;49.120;-0.200;2023-06-04T04:16:45;101700.13;;;13.66;70.63
35910;BME280;22004;49.120;-0.200;2023-06-04T04:19:10;101698.94;;;13.68;70.79
35910;BME280;22004;49.120;-0.200;2023-06-04T04:21:37;101698.75;;;13.70;70.96
35910;BME280;22004;49.120;-0.200;2023-06-04T04:24:03;101696.34;;;13.75;70.38
35910;BME280;22004;49.120;-0.200;2023-06-04T04:26:28;101700.31;;;13.64;69.76
35910;BME280;22004;49.120;-0.200;2023-06-04T04:28:54;101697.59;;;13.64;70.65
35910;BME280;22004;49.120;-0.200;2023-06-04T04:31:26;101698.75;;;13.70;70.25
35910;BME280;22004;49.120;-0.200;2023-06-04T04:33:52;101702.28;;;13.70;70.42
35910;BME280;22004;49.120;-0.200;2023-06-04T04:36:17;101691.19;;;13.65;70.45
35910;BME280;22004;49.120;-0.200;2023-06-04T04:38:43;101690.00;;;13.68;70.23
35910;BME280;22004;49.120;-0.200;2023-06-04T04:41:10;101694.69;;;13.74;70.08
35910;BME280;22004;49.120;-0.200;2023-06-04T04:43:37;101700.81;;;13.68;70.44
35910;BME280;22004;49.120;-0.200;2023-06-04T04:46:06;101704.66;;;13.74;70.01
35910;BME280;22004;49.120;-0.200;2023-06-04T04:48:32;101694.88;;;13.73;69.75
35910;BME280;22004;49.120;-0.200;2023-06-04T04:50:57;101697.72;;;13.71;70.16
35910;BME280;22004;49.120;-0.200;2023-06-04T04:53:23;101701.09;;;13.73;70.41
35910;BME280;22004;49.120;-0.200;2023-06-04T04:55:48;101698.53;;;13.80;69.90
35910;BME280;22004;49.120;-0.200;2023-06-04T04:58:14;101689.59;;;13.79;69.73
35910;BME280;22004;49.120;-0.200;2023-06-04T05:00:40;101698.88;;;13.77;70.15
35910;BME280;22004;49.120;-0.200;2023-06-04T05:03:05;101689.22;;;13.82;69.85
35910;BME280;22004;49.120;-0.200;2023-06-04T05:05:32;101701.34;;;13.86;69.85
35910;BME280;22004;49.120;-0.200;2023-06-04T05:07:57;101698.28;;;13.89;69.76
35910;BME280;22004;49.120;-0.200;2023-06-04T05:10:23;101702.31;;;13.93;70.31
35910;BME280;22004;49.120;-0.200;2023-06-04T05:12:56;101694.38;;;13.92;70.02
35910;BME280;22004;49.120;-0.200;2023-06-04T05:15:22;101707.84;;;14.00;70.10
35910;BME280;22004;49.120;-0.200;2023-06-04T05:17:49;101703.56;;;14.06;69.85
35910;BME280;22004;49.120;-0.200;2023-06-04T05:20:17;101704.25;;;14.08;69.94
35910;BME280;22004;49.120;-0.200;2023-06-04T05:22:43;101708.91;;;14.14;69.74
35910;BME280;22004;49.120;-0.200;2023-06-04T05:25:08;101704.16;;;14.16;69.87
35910;BME280;22004;49.120;-0.200;2023-06-04T05:27:35;101707.25;;;14.13;69.61
35910;BME280;22004;49.120;-0.200;2023-06-04T05:30:01;101708.63;;;14.09;69.64
35910;BME280;22004;49.120;-0.200;2023-06-04T05:32:27;101709.31;;;14.26;69.64
35910;BME280;22004;49.120;-0.200;2023-06-04T05:34:54;101703.56;;;14.29;69.71
35910;BME280;22004;49.120;-0.200;2023-06-04T05:37:22;101709.47;;;14.32;69.55
35910;BME280;22004;49.120;-0.200;2023-06-04T05:39:49;101709.09;;;14.35;69.37
35910;BME280;22004;49.120;-0.200;2023-06-04T05:42:14;101707.69;;;14.39;69.01
35910;BME280;22004;49.120;-0.200;2023-06-04T05:44:40;101719.00;;;14.43;69.00
35910;BME280;22004;49.120;-0.200;2023-06-04T05:47:06;101717.94;;;14.52;68.92
35910;BME280;22004;49.120;-0.200;2023-06-04T05:49:33;101726.13;;;14.59;68.81
35910;BME280;22004;49.120;-0.200;2023-06-04T05:51:59;101716.44;;;14.64;68.59
35910;BME280;22004;49.120;-0.200;2023-06-04T05:54:24;101717.56;;;14.70;68.42
35910;BME280;22004;49.120;-0.200;2023-06-04T05:56:49;101712.66;;;14.73;68.36
35910;BME280;22004;49.120;-0.200;2023-06-04T05:59:15;101714.16;;;15.06;67.47
35910;BME280;22004;49.120;-0.200;2023-06-04T06:01:40;101715.22;;;15.70;65.40
35910;BME280;22004;49.120;-0.200;2023-06-04T06:04:05;101720.75;;;16.20;63.91
35910;BME280;22004;49.120;-0.200;2023-06-04T06:06:31;101716.16;;;16.91;61.83
35910;BME280;22004;49.120;-0.200;2023-06-04T06:08:56;101712.09;;;17.09;61.71
35910;BME280;22004;49.120;-0.200;2023-06-04T06:11:23;101722.97;;;18.31;57.45
35910;BME280;22004;49.120;-0.200;2023-06-04T06:13:48;101727.59;;;18.77;55.96
35910;BME280;22004;49.120;-0.200;2023-06-04T06:16:13;101718.19;;;19.51;53.98
35910;BME280;22004;49.120;-0.200;2023-06-04T06:18:39;101720.38;;;19.22;54.65
35910;BME280;22004;49.120;-0.200;2023-06-04T06:21:05;101724.94;;;20.25;51.35
35910;BME280;22004;49.120;-0.200;2023-06-04T06:23:30;101721.69;;;20.09;52.07
35910;BME280;22004;49.120;-0.200;2023-06-04T06:25:56;101727.47;;;20.76;49.72
35910;BME280;22004;49.120;-0.200;2023-06-04T06:28:22;101733.19;;;21.85;47.68
35910;BME280;22004;49.120;-0.200;2023-06-04T06:30:47;101728.47;;;20.57;49.85
35910;BME280;22004;49.120;-0.200;2023-06-04T06:33:13;101720.97;;;21.39;47.06
35910;BME280;22004;49.120;-0.200;2023-06-04T06:35:38;101732.25;;;22.21;46.20
35910;BME280;22004;49.120;-0.200;2023-06-04T06:38:04;101722.75;;;20.65;49.15
35910;BME280;22004;49.120;-0.200;2023-06-04T06:40:30;101722.09;;;20.88;47.01
35910;BME280;22004;49.120;-0.200;2023-06-04T06:42:56;101720.56;;;21.35;46.45
35910;BME280;22004;49.120;-0.200;2023-06-04T06:45:21;101718.19;;;20.59;45.95
35910;BME280;22004;49.120;-0.200;2023-06-04T06:47:46;101724.31;;;21.71;44.99
35910;BME280;22004;49.120;-0.200;2023-06-04T06:50:12;101730.41;;;22.33;44.98
35910;BME280;22004;49.120;-0.200;2023-06-04T06:52:38;101718.38;;;22.34;43.51
35910;BME280;22004;49.120;-0.200;2023-06-04T06:55:04;101719.91;;;20.97;48.30
35910;BME280;22004;49.120;-0.200;2023-06-04T06:57:30;101707.78;;;21.96;45.80
35910;BME280;22004;49.120;-0.200;2023-06-04T06:59:55;101707.25;;;22.94;44.04
35910;BME280;22004;49.120;-0.200;2023-06-04T07:02:21;101712.22;;;22.62;43.53
35910;BME280;22004;49.120;-0.200;2023-06-04T07:04:47;101724.69;;;22.05;45.99
35910;BME280;22004;49.120;-0.200;2023-06-04T07:07:13;101716.41;;;21.81;46.45
35910;BME280;22004;49.120;-0.200;2023-06-04T07:09:38;101716.88;;;21.23;46.86
35910;BME280;22004;49.120;-0.200;2023-06-04T07:12:04;101719.91;;;20.22;45.25
35910;BME280;22004;49.120;-0.200;2023-06-04T07:14:29;101727.31;;;20.71;47.95
35910;BME280;22004;49.120;-0.200;2023-06-04T07:16:54;101728.56;;;21.67;45.59
35910;BME280;22004;49.120;-0.200;2023-06-04T07:19:20;101734.09;;;22.09;44.52
35910;BME280;22004;49.120;-0.200;2023-06-04T07:21:45;101729.38;;;21.37;43.17
35910;BME280;22004;49.120;-0.200;2023-06-04T07:24:11;101738.16;;;21.88;42.08
35910;BME280;22004;49.120;-0.200;2023-06-04T07:26:36;101739.03;;;22.18;43.77
35910;BME280;22004;49.120;-0.200;2023-06-04T07:29:02;101732.75;;;22.00;44.88
35910;BME280;22004;49.120;-0.200;2023-06-04T07:31:27;101738.06;;;22.78;43.86
35910;BME280;22004;49.120;-0.200;2023-06-04T07:33:53;101750.16;;;21.87;43.95
35910;BME280;22004;49.120;-0.200;2023-06-04T07:36:18;101744.38;;;22.79;41.57
35910;BME280;22004;49.120;-0.200;2023-06-04T07:38:43;101740.81;;;22.90;41.82
35910;BME280;22004;49.120;-0.200;2023-06-04T07:41:09;101744.28;;;22.02;41.09
35910;BME280;22004;49.120;-0.200;2023-06-04T07:43:35;101746.41;;;22.95;39.77
35910;BME280;22004;49.120;-0.200;2023-06-04T07:46:01;101746.84;;;23.27;38.87
35910;BME280;22004;49.120;-0.200;2023-06-04T07:48:27;101743.56;;;23.13;42.71
35910;BME280;22004;49.120;-0.200;2023-06-04T07:50:59;101748.03;;;24.57;38.99
35910;BME280;22004;49.120;-0.200;2023-06-04T07:53:26;101747.53;;;23.46;41.04
35910;BME280;22004;49.120;-0.200;2023-06-04T07:55:52;101741.97;;;22.70;41.54
35910;BME280;22004;49.120;-0.200;2023-06-04T07:58:18;101739.63;;;23.73;38.85
35910;BME280;22004;49.120;-0.200;2023-06-04T08:00:43;101745.34;;;23.71;40.23
35910;BME280;22004;49.120;-0.200;2023-06-04T08:03:09;101743.69;;;24.78;38.38
35910;BME280;22004;49.120;-0.200;2023-06-04T08:05:35;101741.66;;;23.66;40.16
35910;BME280;22004;49.120;-0.200;2023-06-04T08:08:01;101737.88;;;24.41;39.27
35910;BME280;22004;49.120;-0.200;2023-06-04T08:10:27;101738.00;;;25.18;38.40
35910;BME280;22004;49.120;-0.200;2023-06-04T08:12:52;101734.47;;;24.67;37.95
35910;BME280;22004;49.120;-0.200;2023-06-04T08:15:17;101733.81;;;24.15;36.68
35910;BME280;22004;49.120;-0.200;2023-06-04T08:17:43;101730.44;;;25.09;38.05
35910;BME280;22004;49.120;-0.200;2023-06-04T08:20:08;101730.59;;;24.35;35.99
35910;BME280;22004;49.120;-0.200;2023-06-04T08:22:37;101733.38;;;25.46;37.86
35910;BME280;22004;49.120;-0.200;2023-06-04T08:25:02;101729.94;;;24.28;40.11
35910;BME280;22004;49.120;-0.200;2023-06-04T08:27:29;101736.03;;;24.80;37.96
35910;BME280;22004;49.120;-0.200;2023-06-04T08:29:55;101737.28;;;25.28;37.05
35910;BME280;22004;49.120;-0.200;2023-06-04T08:32:20;101732.44;;;24.29;37.81
35910;BME280;22004;49.120;-0.200;2023-06-04T08:34:45;101736.03;;;24.97;38.49
35910;BME280;22004;49.120;-0.200;2023-06-04T08:37:11;101742.50;;;25.08;39.16
35910;BME280;22004;49.120;-0.200;2023-06-04T08:39:36;101733.22;;;24.58;36.10
35910;BME280;22004;49.120;-0.200;2023-06-04T08:42:06;101739.88;;;24.62;38.50
35910;BME280;22004;49.120;-0.200;2023-06-04T08:44:34;101734.78;;;24.71;39.17
35910;BME280;22004;49.120;-0.200;2023-06-04T08:47:05;101740.13;;;24.61;39.73
35910;BME280;22004;49.120;-0.200;2023-06-04T08:49:35;101734.84;;;24.93;37.44
35910;BME280;22004;49.120;-0.200;2023-06-04T08:52:02;101733.00;;;25.15;36.03
35910;BME280;22004;49.120;-0.200;2023-06-04T08:54:28;101732.44;;;24.96;38.14
35910;BME280;22004;49.120;-0.200;2023-06-04T08:56:56;101721.53;;;24.34;39.59
35910;BME280;22004;49.120;-0.200;2023-06-04T08:59:22;101729.44;;;24.81;39.66
35910;BME280;22004;49.120;-0.200;2023-06-04T09:01:48;101729.88;;;24.73;39.36
35910;BME280;22004;49.120;-0.200;2023-06-04T09:04:13;101729.84;;;24.90;38.51
35910;BME280;22004;49.120;-0.200;2023-06-04T09:06:39;101728.16;;;24.21;40.64
35910;BME280;22004;49.120;-0.200;2023-06-04T09:09:09;101723.75;;;25.43;37.70
35910;BME280;22004;49.120;-0.200;2023-06-04T09:11:39;101732.75;;;25.83;37.31
35910;BME280;22004;49.120;-0.200;2023-06-04T09:14:11;101726.84;;;25.96;36.98
35910;BME280;22004;49.120;-0.200;2023-06-04T09:16:45;101723.56;;;24.72;38.92
35910;BME280;22004;49.120;-0.200;2023-06-04T09:19:11;101727.91;;;25.24;38.85
35910;BME280;22004;49.120;-0.200;2023-06-04T09:21:54;101732.81;;;25.05;36.72
35910;BME280;22004;49.120;-0.200;2023-06-04T09:24:21;101732.25;;;25.42;38.38
35910;BME280;22004;49.120;-0.200;2023-06-04T09:26:46;101728.88;;;25.57;37.60
35910;BME280;22004;49.120;-0.200;2023-06-04T09:29:12;101727.44;;;25.54;36.84
35910;BME280;22004;49.120;-0.200;2023-06-04T09:31:38;101728.81;;;26.00;38.38
35910;BME280;22004;49.120;-0.200;2023-06-04T09:34:05;101728.75;;;25.95;37.25
35910;BME280;22004;49.120;-0.200;2023-06-04T09:36:34;101718.03;;;25.72;36.82
35910;BME280;22004;49.120;-0.200;2023-06-04T09:39:01;101726.63;;;25.32;38.04
35910;BME280;22004;49.120;-0.200;2023-06-04T09:41:28;101728.91;;;25.18;37.36
35910;BME280;22004;49.120;-0.200;2023-06-04T09:44:03;101722.66;;;25.44;37.01
35910;BME280;22004;49.120;-0.200;2023-06-04T09:46:29;101729.75;;;26.11;35.10
35910;BME280;22004;49.120;-0.200;2023-06-04T09:49:03;101734.47;;;26.16;36.70
35910;BME280;22004;49.120;-0.200;2023-06-04T09:51:29;101721.38;;;25.30;37.93
35910;BME280;22004;49.120;-0.200;2023-06-04T09:53:58;101718.63;;;25.08;37.43
35910;BME280;22004;49.120;-0.200;2023-06-04T09:56:24;101719.25;;;25.15;36.79
35910;BME280;22004;49.120;-0.200;2023-06-04T09:58:56;101729.56;;;25.47;38.14
35910;BME280;22004;49.120;-0.200;2023-06-04T10:01:26;101731.69;;;26.11;37.09
35910;BME280;22004;49.120;-0.200;2023-06-04T10:03:52;101734.53;;;25.72;37.99
35910;BME280;22004;49.120;-0.200;2023-06-04T10:06:19;101731.88;;;25.33;37.73
35910;BME280;22004;49.120;-0.200;2023-06-04T10:08:49;101732.44;;;25.57;38.60
35910;BME280;22004;49.120;-0.200;2023-06-04T10:11:17;101732.25;;;25.03;39.48
35910;BME280;22004;49.120;-0.200;2023-06-04T10:14:00;101732.13;;;24.59;39.74
35910;BME280;22004;49.120;-0.200;2023-06-04T10:16:28;101731.25;;;25.09;38.69
35910;BME280;22004;49.120;-0.200;2023-06-04T10:18:55;101738.63;;;25.25;38.03
35910;BME280;22004;49.120;-0.200;2023-06-04T10:21:21;101732.56;;;25.67;38.25
35910;BME280;22004;49.120;-0.200;2023-06-04T10:23:48;101738.78;;;26.07;36.81
35910;BME280;22004;49.120;-0.200;2023-06-04T10:26:14;101726.81;;;25.47;38.43
35910;BME280;22004;49.120;-0.200;2023-06-04T10:28:41;101741.50;;;24.97;38.12
35910;BME280;22004;49.120;-0.200;2023-06-04T10:31:11;101728.03;;;25.78;38.06
35910;BME280;22004;49.120;-0.200;2023-06-04T10:33:37;101736.13;;;25.24;39.06
35910;BME280;22004;49.120;-0.200;2023-06-04T10:36:16;101734.63;;;26.04;39.47
35910;BME280;22004;49.120;-0.200;2023-06-04T10:38:47;101737.03;;;25.08;39.42
35910;BME280;22004;49.120;-0.200;2023-06-04T10:41:16;101742.31;;;26.02;35.33
35910;BME280;22004;49.120;-0.200;2023-06-04T10:43:46;101737.06;;;25.51;37.36
35910;BME280;22004;49.120;-0.200;2023-06-04T10:46:15;101732.13;;;25.53;37.61
35910;BME280;22004;49.120;-0.200;2023-06-04T10:48:48;101743.81;;;25.05;39.03
35910;BME280;22004;49.120;-0.200;2023-06-04T10:51:15;101735.31;;;25.23;39.32
35910;BME280;22004;49.120;-0.200;2023-06-04T10:53:40;101734.72;;;25.65;38.65
35910;BME280;22004;49.120;-0.200;2023-06-04T10:56:06;101736.63;;;25.21;38.61
35910;BME280;22004;49.120;-0.200;2023-06-04T10:58:32;101744.16;;;25.47;39.22
35910;BME280;22004;49.120;-0.200;2023-06-04T11:00:58;101737.69;;;25.59;36.06
35910;BME280;22004;49.120;-0.200;2023-06-04T11:03:34;101734.69;;;25.82;36.91
35910;BME280;22004;49.120;-0.200;2023-06-04T11:06:01;101738.81;;;25.41;37.73
35910;BME280;22004;49.120;-0.200;2023-06-04T11:08:28;101735.38;;;25.50;36.63
35910;BME280;22004;49.120;-0.200;2023-06-04T11:10:54;101729.31;;;25.26;38.73
35910;BME280;22004;49.120;-0.200;2023-06-04T11:13:25;101729.56;;;25.47;37.78
35910;BME280;22004;49.120;-0.200;2023-06-04T11:15:51;101728.09;;;25.39;39.42
35910;BME280;22004;49.120;-0.200;2023-06-04T11:18:20;101735.50;;;25.83;37.40
35910;BME280;22004;49.120;-0.200;2023-06-04T11:20:50;101727.50;;;24.98;39.08
35910;BME280;22004;49.120;-0.200;2023-06-04T11:23:16;101732.38;;;24.74;41.75
35910;BME280;22004;49.120;-0.200;2023-06-04T11:25:43;101734.91;;;25.81;40.62
35910;BME280;22004;49.120;-0.200;2023-06-04T11:28:15;101729.47;;;25.86;39.56
35910;BME280;22004;49.120;-0.200;2023-06-04T11:30:41;101719.56;;;24.63;41.21
35910;BME280;22004;49.120;-0.200;2023-06-04T11:33:06;101718.06;;;24.56;41.17
35910;BME280;22004;49.120;-0.200;2023-06-04T11:35:40;101723.31;;;24.74;40.67
35910;BME280;22004;49.120;-0.200;2023-06-04T11:38:06;101719.44;;;25.09;41.89
35910;BME280;22004;49.120;-0.200;2023-06-04T11:40:31;101729.88;;;25.07;41.07
35910;BME280;22004;49.120;-0.200;2023-06-04T11:42:57;101725.94;;;24.86;40.45
35910;BME280;22004;49.120;-0.200;2023-06-04T11:45:23;101722.56;;;24.45;41.86
35910;BME280;22004;49.120;-0.200;2023-06-04T11:50:15;101718.56;;;24.36;43.84
35910;BME280;22004;49.120;-0.200;2023-06-04T11:52:41;101721.50;;;25.62;41.76
35910;BME280;22004;49.120;-0.200;2023-06-04T11:55:11;101727.41;;;24.55;42.00
35910;BME280;22004;49.120;-0.200;2023-06-04T11:57:40;101723.94;;;24.81;41.94
35910;BME280;22004;49.120;-0.200;2023-06-04T12:00:07;101714.16;;;24.68;42.49
35910;BME280;22004;49.120;-0.200;2023-06-04T12:02:36;101711.28;;;24.97;42.41
35910;BME280;22004;49.120;-0.200;2023-06-04T12:05:15;101713.88;;;24.03;43.29
35910;BME280;22004;49.120;-0.200;2023-06-04T12:07:41;101709.94;;;23.98;44.15
35910;BME280;22004;49.120;-0.200;2023-06-04T12:10:09;101710.25;;;24.64;42.42
35910;BME280;22004;49.120;-0.200;2023-06-04T12:12:37;101707.72;;;24.12;44.01
35910;BME280;22004;49.120;-0.200;2023-06-04T12:15:02;101708.41;;;24.70;43.79
35910;BME280;22004;49.120;-0.200;2023-06-04T12:17:30;101719.81;;;24.79;42.62
35910;BME280;22004;49.120;-0.200;2023-06-04T12:19:56;101715.31;;;24.22;43.08
35910;BME280;22004;49.120;-0.200;2023-06-04T12:22:23;101711.03;;;23.69;44.26
35910;BME280;22004;49.120;-0.200;2023-06-04T12:24:58;101710.03;;;24.04;44.71
35910;BME280;22004;49.120;-0.200;2023-06-04T12:27:26;101709.34;;;24.59;45.19
35910;BME280;22004;49.120;-0.200;2023-06-04T12:30:03;101714.09;;;24.63;42.78
35910;BME280;22004;49.120;-0.200;2023-06-04T12:32:29;101715.88;;;25.30;43.23
35910;BME280;22004;49.120;-0.200;2023-06-04T12:34:54;101709.84;;;23.93;43.59
35910;BME280;22004;49.120;-0.200;2023-06-04T12:37:21;101719.06;;;24.49;43.51
35910;BME280;22004;49.120;-0.200;2023-06-04T12:39:47;101714.97;;;24.35;44.25
35910;BME280;22004;49.120;-0.200;2023-06-04T12:42:12;101715.56;;;24.71;43.74
35910;BME280;22004;49.120;-0.200;2023-06-04T12:44:39;101705.06;;;24.17;43.64
35910;BME280;22004;49.120;-0.200;2023-06-04T12:47:06;101722.34;;;23.72;44.40
35910;BME280;22004;49.120;-0.200;2023-06-04T12:49:31;101709.59;;;23.95;45.15
35910;BME280;22004;49.120;-0.200;2023-06-04T12:51:57;101709.59;;;24.40;43.21